RJBB/KIX METAR and TAF weather

Enter ICAO airport designator
Station Type Date Time Source
RJBB METAR 2019/08/20 09:30 UTC NOAA

RJBB 200930Z 25010KT 9999 FEW015 SCT080 BKN/// 29/26 Q1009 NOSIG


Station Type Date Time Source
RJBB Decoded METAR 2019/08/20 09:30 UTC NOAA

Kansai International Airport, Japan (RJBB) 34-25N 135-15E 8M
Aug 20, 2019 - 05:30 AM EDT / 2019.08.20 0930 UTC
Wind: from the WSW (250 degrees) at 12 MPH (10 KT):0
Visibility: greater than 7 mile(s):0
Sky conditions: mostly cloudy
Temperature: 84 F (29 C)
Dew Point: 78 F (26 C)
Relative Humidity: 83%
Pressure (altimeter): 29.80 in. Hg (1009 hPa)
ob: RJBB 200930Z 25010KT 9999 FEW015 SCT080 BKN/// 29/26 Q1009 NOSIG
cycle: 9

Station Type Date Time Source
RJBB TAF 2019/08/20 06:15 UTC NOAA

TAF RJBB 200508Z 2006/2112 23009KT 9999 FEW015 SCT035

Example: see airport list